sensor_id;sensor_type;location;lat;lon;timestamp;P1;durP1;ratioP1;P2;durP2;ratioP2
1360;SDS011;674;45.552;-122.600;2022-11-23T00:01:33;7.73;;;6.40;;
1360;SDS011;674;45.552;-122.600;2022-11-23T00:04:03;9.73;;;7.00;;
1360;SDS011;674;45.552;-122.600;2022-11-23T00:06:34;10.90;;;6.90;;
1360;SDS011;674;45.552;-122.600;2022-11-23T00:09:02;7.83;;;6.23;;
1360;SDS011;674;45.552;-122.600;2022-11-23T00:11:32;8.97;;;7.30;;
1360;SDS011;674;45.552;-122.600;2022-11-23T00:14:01;9.83;;;7.17;;
1360;SDS011;674;45.552;-122.600;2022-11-23T00:16:30;11.17;;;7.93;;
1360;SDS011;674;45.552;-122.600;2022-11-23T00:18:59;8.40;;;7.27;;
1360;SDS011;674;45.552;-122.600;2022-11-23T00:21:29;8.10;;;7.27;;
1360;SDS011;674;45.552;-122.600;2022-11-23T00:23:59;9.80;;;8.17;;
1360;SDS011;674;45.552;-122.600;2022-11-23T00:26:27;12.30;;;8.80;;
1360;SDS011;674;45.552;-122.600;2022-11-23T00:28:56;11.43;;;9.37;;
1360;SDS011;674;45.552;-122.600;2022-11-23T00:31:24;9.13;;;7.77;;
1360;SDS011;674;45.552;-122.600;2022-11-23T00:33:53;10.90;;;9.33;;
1360;SDS011;674;45.552;-122.600;2022-11-23T00:36:23;13.07;;;10.50;;
1360;SDS011;674;45.552;-122.600;2022-11-23T00:38:53;8.93;;;8.03;;
1360;SDS011;674;45.552;-122.600;2022-11-23T00:41:22;9.53;;;8.33;;
1360;SDS011;674;45.552;-122.600;2022-11-23T00:43:52;12.03;;;10.37;;
1360;SDS011;674;45.552;-122.600;2022-11-23T00:46:22;15.43;;;11.20;;
1360;SDS011;674;45.552;-122.600;2022-11-23T00:48:52;15.90;;;14.10;;
1360;SDS011;674;45.552;-122.600;2022-11-23T00:51:24;13.57;;;11.00;;
1360;SDS011;674;45.552;-122.600;2022-11-23T00:53:57;17.50;;;12.87;;
1360;SDS011;674;45.552;-122.600;2022-11-23T00:56:27;17.70;;;15.77;;
1360;SDS011;674;45.552;-122.600;2022-11-23T00:58:57;15.37;;;13.50;;
1360;SDS011;674;45.552;-122.600;2022-11-23T01:01:31;20.03;;;16.87;;
1360;SDS011;674;45.552;-122.600;2022-11-23T01:04:06;21.30;;;18.10;;
1360;SDS011;674;45.552;-122.600;2022-11-23T01:06:36;20.93;;;16.30;;
1360;SDS011;674;45.552;-122.600;2022-11-23T01:09:13;17.20;;;14.07;;
1360;SDS011;674;45.552;-122.600;2022-11-23T01:11:44;17.10;;;14.40;;
1360;SDS011;674;45.552;-122.600;2022-11-23T01:14:12;15.30;;;12.77;;
1360;SDS011;674;45.552;-122.600;2022-11-23T01:16:41;21.80;;;16.63;;
1360;SDS011;674;45.552;-122.600;2022-11-23T01:19:10;15.57;;;13.13;;
1360;SDS011;674;45.552;-122.600;2022-11-23T01:21:41;16.80;;;13.97;;
1360;SDS011;674;45.552;-122.600;2022-11-23T01:24:11;17.13;;;15.33;;
1360;SDS011;674;45.552;-122.600;2022-11-23T01:26:52;17.90;;;15.93;;
1360;SDS011;674;45.552;-122.600;2022-11-23T01:29:22;15.77;;;13.43;;
1360;SDS011;674;45.552;-122.600;2022-11-23T01:31:51;13.77;;;12.30;;
1360;SDS011;674;45.552;-122.600;2022-11-23T01:34:19;22.30;;;16.63;;
1360;SDS011;674;45.552;-122.600;2022-11-23T01:36:47;19.10;;;12.90;;
1360;SDS011;674;45.552;-122.600;2022-11-23T01:39:16;13.57;;;11.37;;
1360;SDS011;674;45.552;-122.600;2022-11-23T01:41:44;14.27;;;12.50;;
1360;SDS011;674;45.552;-122.600;2022-11-23T01:44:29;16.70;;;13.10;;
1360;SDS011;674;45.552;-122.600;2022-11-23T01:47:08;13.60;;;12.10;;
1360;SDS011;674;45.552;-122.600;2022-11-23T01:49:44;15.67;;;12.90;;
1360;SDS011;674;45.552;-122.600;2022-11-23T01:52:18;16.07;;;12.30;;
1360;SDS011;674;45.552;-122.600;2022-11-23T01:54:54;13.90;;;11.73;;
1360;SDS011;674;45.552;-122.600;2022-11-23T01:57:32;15.47;;;13.40;;
1360;SDS011;674;45.552;-122.600;2022-11-23T02:00:05;16.03;;;13.73;;
1360;SDS011;674;45.552;-122.600;2022-11-23T02:02:35;16.07;;;12.97;;
1360;SDS011;674;45.552;-122.600;2022-11-23T02:05:05;15.10;;;12.27;;
1360;SDS011;674;45.552;-122.600;2022-11-23T02:07:34;16.10;;;12.53;;
1360;SDS011;674;45.552;-122.600;2022-11-23T02:10:03;18.37;;;13.20;;
1360;SDS011;674;45.552;-122.600;2022-11-23T02:12:32;17.37;;;14.50;;
1360;SDS011;674;45.552;-122.600;2022-11-23T02:15:01;19.40;;;14.00;;
1360;SDS011;674;45.552;-122.600;2022-11-23T02:17:29;17.23;;;14.53;;
1360;SDS011;674;45.552;-122.600;2022-11-23T02:22:34;18.40;;;14.17;;
1360;SDS011;674;45.552;-122.600;2022-11-23T02:28:17;22.83;;;16.50;;
1360;SDS011;674;45.552;-122.600;2022-11-23T02:30:57;19.67;;;15.03;;
1360;SDS011;674;45.552;-122.600;2022-11-23T02:33:28;16.80;;;13.87;;
1360;SDS011;674;45.552;-122.600;2022-11-23T02:35:58;17.20;;;14.00;;
1360;SDS011;674;45.552;-122.600;2022-11-23T02:38:29;19.63;;;15.23;;
1360;SDS011;674;45.552;-122.600;2022-11-23T02:40:59;18.57;;;12.50;;
1360;SDS011;674;45.552;-122.600;2022-11-23T02:43:27;18.10;;;13.40;;
1360;SDS011;674;45.552;-122.600;2022-11-23T02:45:57;17.80;;;14.10;;
1360;SDS011;674;45.552;-122.600;2022-11-23T02:48:28;13.30;;;10.87;;
1360;SDS011;674;45.552;-122.600;2022-11-23T02:50:56;22.07;;;14.17;;
1360;SDS011;674;45.552;-122.600;2022-11-23T02:53:24;12.90;;;9.77;;
1360;SDS011;674;45.552;-122.600;2022-11-23T02:55:53;13.53;;;10.57;;
1360;SDS011;674;45.552;-122.600;2022-11-23T02:58:21;10.13;;;8.93;;
1360;SDS011;674;45.552;-122.600;2022-11-23T03:00:50;11.43;;;9.70;;
1360;SDS011;674;45.552;-122.600;2022-11-23T03:03:18;10.53;;;8.50;;
1360;SDS011;674;45.552;-122.600;2022-11-23T03:05:47;10.40;;;9.07;;
1360;SDS011;674;45.552;-122.600;2022-11-23T03:08:15;13.33;;;9.23;;
1360;SDS011;674;45.552;-122.600;2022-11-23T03:10:43;12.50;;;8.73;;
1360;SDS011;674;45.552;-122.600;2022-11-23T03:13:12;11.67;;;9.67;;
1360;SDS011;674;45.552;-122.600;2022-11-23T03:15:40;12.30;;;9.40;;
1360;SDS011;674;45.552;-122.600;2022-11-23T03:18:09;15.40;;;7.70;;
1360;SDS011;674;45.552;-122.600;2022-11-23T03:20:37;11.50;;;7.70;;
1360;SDS011;674;45.552;-122.600;2022-11-23T03:23:05;9.13;;;7.13;;
1360;SDS011;674;45.552;-122.600;2022-11-23T03:25:34;11.60;;;7.27;;
1360;SDS011;674;45.552;-122.600;2022-11-23T03:28:02;14.43;;;7.33;;
1360;SDS011;674;45.552;-122.600;2022-11-23T03:30:31;11.30;;;6.37;;
1360;SDS011;674;45.552;-122.600;2022-11-23T03:32:59;9.30;;;6.97;;
1360;SDS011;674;45.552;-122.600;2022-11-23T03:35:27;8.23;;;7.40;;
1360;SDS011;674;45.552;-122.600;2022-11-23T03:37:56;10.67;;;8.07;;
1360;SDS011;674;45.552;-122.600;2022-11-23T03:40:24;12.43;;;7.53;;
1360;SDS011;674;45.552;-122.600;2022-11-23T03:42:52;12.60;;;8.07;;
1360;SDS011;674;45.552;-122.600;2022-11-23T03:45:21;9.40;;;7.13;;
1360;SDS011;674;45.552;-122.600;2022-11-23T03:47:49;14.10;;;8.10;;
1360;SDS011;674;45.552;-122.600;2022-11-23T03:50:18;14.97;;;8.47;;
1360;SDS011;674;45.552;-122.600;2022-11-23T03:52:49;11.60;;;8.50;;
1360;SDS011;674;45.552;-122.600;2022-11-23T03:55:17;11.13;;;8.63;;
1360;SDS011;674;45.552;-122.600;2022-11-23T03:57:49;15.10;;;10.50;;
1360;SDS011;674;45.552;-122.600;2022-11-23T04:00:17;12.67;;;9.70;;
1360;SDS011;674;45.552;-122.600;2022-11-23T04:02:46;13.43;;;7.90;;
1360;SDS011;674;45.552;-122.600;2022-11-23T04:05:14;12.17;;;7.90;;
1360;SDS011;674;45.552;-122.600;2022-11-23T04:07:42;11.77;;;7.50;;
1360;SDS011;674;45.552;-122.600;2022-11-23T04:10:17;13.20;;;8.10;;
1360;SDS011;674;45.552;-122.600;2022-11-23T04:12:49;12.83;;;7.63;;
1360;SDS011;674;45.552;-122.600;2022-11-23T04:15:18;17.67;;;11.40;;
1360;SDS011;674;45.552;-122.600;2022-11-23T04:17:47;20.60;;;13.87;;
1360;SDS011;674;45.552;-122.600;2022-11-23T04:20:15;29.23;;;19.00;;
1360;SDS011;674;45.552;-122.600;2022-11-23T04:22:44;36.07;;;24.63;;
1360;SDS011;674;45.552;-122.600;2022-11-23T04:25:12;30.97;;;21.30;;
1360;SDS011;674;45.552;-122.600;2022-11-23T04:27:40;33.83;;;20.47;;
1360;SDS011;674;45.552;-122.600;2022-11-23T04:30:09;33.50;;;19.23;;
1360;SDS011;674;45.552;-122.600;2022-11-23T04:32:38;26.57;;;15.30;;
1360;SDS011;674;45.552;-122.600;2022-11-23T04:35:06;23.90;;;13.93;;
1360;SDS011;674;45.552;-122.600;2022-11-23T04:37:35;20.00;;;12.80;;
1360;SDS011;674;45.552;-122.600;2022-11-23T04:40:03;16.40;;;10.30;;
1360;SDS011;674;45.552;-122.600;2022-11-23T04:42:32;16.53;;;10.10;;
1360;SDS011;674;45.552;-122.600;2022-11-23T04:45:01;17.40;;;8.53;;
1360;SDS011;674;45.552;-122.600;2022-11-23T04:47:29;15.13;;;9.83;;
1360;SDS011;674;45.552;-122.600;2022-11-23T04:49:58;13.53;;;8.70;;
1360;SDS011;674;45.552;-122.600;2022-11-23T04:52:26;16.37;;;9.90;;
1360;SDS011;674;45.552;-122.600;2022-11-23T04:54:55;13.90;;;9.30;;
1360;SDS011;674;45.552;-122.600;2022-11-23T04:57:23;12.50;;;8.00;;
1360;SDS011;674;45.552;-122.600;2022-11-23T04:59:52;14.33;;;9.30;;
1360;SDS011;674;45.552;-122.600;2022-11-23T05:02:20;17.93;;;9.67;;
1360;SDS011;674;45.552;-122.600;2022-11-23T05:04:48;16.00;;;8.73;;
1360;SDS011;674;45.552;-122.600;2022-11-23T05:07:17;10.87;;;7.97;;
1360;SDS011;674;45.552;-122.600;2022-11-23T05:09:45;17.50;;;9.10;;
1360;SDS011;674;45.552;-122.600;2022-11-23T05:12:14;15.93;;;9.30;;
1360;SDS011;674;45.552;-122.600;2022-11-23T05:14:42;15.67;;;9.00;;
1360;SDS011;674;45.552;-122.600;2022-11-23T05:17:11;16.43;;;8.70;;
1360;SDS011;674;45.552;-122.600;2022-11-23T05:19:39;11.63;;;5.27;;
1360;SDS011;674;45.552;-122.600;2022-11-23T05:22:07;17.03;;;10.83;;
1360;SDS011;674;45.552;-122.600;2022-11-23T05:24:36;31.23;;;18.83;;
1360;SDS011;674;45.552;-122.600;2022-11-23T05:27:04;28.10;;;19.60;;
1360;SDS011;674;45.552;-122.600;2022-11-23T05:29:33;50.03;;;31.73;;
1360;SDS011;674;45.552;-122.600;2022-11-23T05:32:02;48.03;;;29.23;;
1360;SDS011;674;45.552;-122.600;2022-11-23T05:34:30;92.83;;;51.47;;
1360;SDS011;674;45.552;-122.600;2022-11-23T05:36:59;48.30;;;27.63;;
1360;SDS011;674;45.552;-122.600;2022-11-23T05:39:27;31.17;;;17.73;;
1360;SDS011;674;45.552;-122.600;2022-11-23T05:41:56;16.03;;;9.30;;
1360;SDS011;674;45.552;-122.600;2022-11-23T05:44:25;19.47;;;11.97;;
1360;SDS011;674;45.552;-122.600;2022-11-23T05:46:53;18.43;;;10.07;;
1360;SDS011;674;45.552;-122.600;2022-11-23T05:49:21;26.03;;;17.10;;
1360;SDS011;674;45.552;-122.600;2022-11-23T05:51:50;24.47;;;15.90;;
1360;SDS011;674;45.552;-122.600;2022-11-23T05:54:18;21.43;;;12.63;;
1360;SDS011;674;45.552;-122.600;2022-11-23T05:56:47;15.67;;;8.53;;
1360;SDS011;674;45.552;-122.600;2022-11-23T05:59:15;9.10;;;6.70;;
1360;SDS011;674;45.552;-122.600;2022-11-23T06:01:43;10.80;;;5.53;;
1360;SDS011;674;45.552;-122.600;2022-11-23T06:04:12;11.17;;;5.80;;
1360;SDS011;674;45.552;-122.600;2022-11-23T06:06:40;10.80;;;6.93;;
1360;SDS011;674;45.552;-122.600;2022-11-23T06:09:09;13.93;;;9.07;;
1360;SDS011;674;45.552;-122.600;2022-11-23T06:11:37;21.20;;;11.83;;
1360;SDS011;674;45.552;-122.600;2022-11-23T06:14:06;29.57;;;16.30;;
1360;SDS011;674;45.552;-122.600;2022-11-23T06:16:39;27.03;;;18.17;;
1360;SDS011;674;45.552;-122.600;2022-11-23T06:19:08;36.27;;;21.33;;
1360;SDS011;674;45.552;-122.600;2022-11-23T06:21:36;17.33;;;9.70;;
1360;SDS011;674;45.552;-122.600;2022-11-23T06:24:05;12.40;;;7.17;;
1360;SDS011;674;45.552;-122.600;2022-11-23T06:26:33;15.33;;;6.57;;
1360;SDS011;674;45.552;-122.600;2022-11-23T06:29:02;13.97;;;8.40;;
1360;SDS011;674;45.552;-122.600;2022-11-23T06:31:30;14.50;;;7.50;;
1360;SDS011;674;45.552;-122.600;2022-11-23T06:33:59;16.67;;;7.60;;
1360;SDS011;674;45.552;-122.600;2022-11-23T06:36:27;14.43;;;8.30;;
1360;SDS011;674;45.552;-122.600;2022-11-23T06:38:56;18.03;;;8.77;;
1360;SDS011;674;45.552;-122.600;2022-11-23T06:41:24;20.53;;;9.70;;
1360;SDS011;674;45.552;-122.600;2022-11-23T06:43:58;18.90;;;9.27;;
1360;SDS011;674;45.552;-122.600;2022-11-23T06:46:26;19.23;;;8.33;;
1360;SDS011;674;45.552;-122.600;2022-11-23T06:48:54;25.60;;;11.40;;
1360;SDS011;674;45.552;-122.600;2022-11-23T06:51:24;21.73;;;9.03;;
1360;SDS011;674;45.552;-122.600;2022-11-23T06:53:52;14.53;;;7.47;;
1360;SDS011;674;45.552;-122.600;2022-11-23T06:56:20;24.80;;;9.60;;
1360;SDS011;674;45.552;-122.600;2022-11-23T06:58:49;17.60;;;7.60;;
1360;SDS011;674;45.552;-122.600;2022-11-23T07:01:17;14.93;;;7.93;;
1360;SDS011;674;45.552;-122.600;2022-11-23T07:03:46;17.80;;;6.87;;
1360;SDS011;674;45.552;-122.600;2022-11-23T07:06:14;19.83;;;8.43;;
1360;SDS011;674;45.552;-122.600;2022-11-23T07:08:43;13.80;;;6.60;;
1360;SDS011;674;45.552;-122.600;2022-11-23T07:11:11;17.43;;;8.53;;
1360;SDS011;674;45.552;-122.600;2022-11-23T07:13:40;14.00;;;5.67;;
1360;SDS011;674;45.552;-122.600;2022-11-23T07:16:08;20.60;;;5.93;;
1360;SDS011;674;45.552;-122.600;2022-11-23T07:18:37;10.70;;;5.17;;
1360;SDS011;674;45.552;-122.600;2022-11-23T07:21:05;11.70;;;4.60;;
1360;SDS011;674;45.552;-122.600;2022-11-23T07:23:34;10.20;;;3.90;;
1360;SDS011;674;45.552;-122.600;2022-11-23T07:26:07;9.97;;;3.93;;
1360;SDS011;674;45.552;-122.600;2022-11-23T07:28:36;13.70;;;3.43;;
1360;SDS011;674;45.552;-122.600;2022-11-23T07:31:04;14.07;;;3.87;;
1360;SDS011;674;45.552;-122.600;2022-11-23T07:33:33;8.00;;;2.87;;
1360;SDS011;674;45.552;-122.600;2022-11-23T07:36:02;7.77;;;2.63;;
1360;SDS011;674;45.552;-122.600;2022-11-23T07:38:30;10.20;;;3.63;;
1360;SDS011;674;45.552;-122.600;2022-11-23T07:40:59;10.47;;;4.37;;
1360;SDS011;674;45.552;-122.600;2022-11-23T07:43:29;11.87;;;3.67;;
1360;SDS011;674;45.552;-122.600;2022-11-23T07:45:58;9.93;;;5.03;;
1360;SDS011;674;45.552;-122.600;2022-11-23T07:48:27;8.37;;;4.13;;
1360;SDS011;674;45.552;-122.600;2022-11-23T07:51:01;14.90;;;5.03;;
1360;SDS011;674;45.552;-122.600;2022-11-23T07:53:30;11.17;;;4.93;;
1360;SDS011;674;45.552;-122.600;2022-11-23T07:55:58;10.93;;;4.10;;
1360;SDS011;674;45.552;-122.600;2022-11-23T07:58:27;15.30;;;6.83;;
1360;SDS011;674;45.552;-122.600;2022-11-23T08:00:55;16.33;;;8.17;;
1360;SDS011;674;45.552;-122.600;2022-11-23T08:03:24;13.67;;;7.20;;
1360;SDS011;674;45.552;-122.600;2022-11-23T08:05:54;14.20;;;9.80;;
1360;SDS011;674;45.552;-122.600;2022-11-23T08:08:23;19.07;;;12.50;;
1360;SDS011;674;45.552;-122.600;2022-11-23T08:10:51;17.20;;;8.83;;
1360;SDS011;674;45.552;-122.600;2022-11-23T08:13:20;14.17;;;9.00;;
1360;SDS011;674;45.552;-122.600;2022-11-23T08:15:49;17.10;;;9.50;;
1360;SDS011;674;45.552;-122.600;2022-11-23T08:18:21;18.40;;;11.40;;
1360;SDS011;674;45.552;-122.600;2022-11-23T08:20:50;19.20;;;10.77;;
1360;SDS011;674;45.552;-122.600;2022-11-23T08:23:19;21.53;;;17.57;;
1360;SDS011;674;45.552;-122.600;2022-11-23T08:25:48;15.77;;;12.17;;
1360;SDS011;674;45.552;-122.600;2022-11-23T08:28:16;17.33;;;12.07;;
1360;SDS011;674;45.552;-122.600;2022-11-23T08:30:45;42.10;;;38.20;;
1360;SDS011;674;45.552;-122.600;2022-11-23T08:33:14;22.80;;;20.40;;
1360;SDS011;674;45.552;-122.600;2022-11-23T08:35:43;19.53;;;17.30;;
1360;SDS011;674;45.552;-122.600;2022-11-23T08:38:11;10.50;;;8.13;;
1360;SDS011;674;45.552;-122.600;2022-11-23T08:40:40;18.27;;;12.80;;
1360;SDS011;674;45.552;-122.600;2022-11-23T08:43:08;14.00;;;4.80;;
1360;SDS011;674;45.552;-122.600;2022-11-23T08:45:37;11.47;;;6.63;;
1360;SDS011;674;45.552;-122.600;2022-11-23T08:48:05;13.50;;;7.63;;
1360;SDS011;674;45.552;-122.600;2022-11-23T08:50:35;14.60;;;7.43;;
1360;SDS011;674;45.552;-122.600;2022-11-23T08:53:03;11.40;;;9.40;;
1360;SDS011;674;45.552;-122.600;2022-11-23T08:55:32;20.70;;;14.70;;
1360;SDS011;674;45.552;-122.600;2022-11-23T08:58:00;23.90;;;17.93;;
1360;SDS011;674;45.552;-122.600;2022-11-23T09:00:31;26.83;;;18.40;;
1360;SDS011;674;45.552;-122.600;2022-11-23T09:02:59;16.87;;;12.07;;
1360;SDS011;674;45.552;-122.600;2022-11-23T09:05:28;18.67;;;11.70;;
1360;SDS011;674;45.552;-122.600;2022-11-23T09:08:00;25.97;;;15.90;;
1360;SDS011;674;45.552;-122.600;2022-11-23T09:10:29;18.13;;;10.10;;
1360;SDS011;674;45.552;-122.600;2022-11-23T09:12:57;16.00;;;9.50;;
1360;SDS011;674;45.552;-122.600;2022-11-23T09:15:26;13.30;;;6.93;;
1360;SDS011;674;45.552;-122.600;2022-11-23T09:17:55;18.00;;;11.43;;
1360;SDS011;674;45.552;-122.600;2022-11-23T09:20:24;21.73;;;8.57;;
1360;SDS011;674;45.552;-122.600;2022-11-23T09:22:52;17.80;;;7.03;;
1360;SDS011;674;45.552;-122.600;2022-11-23T09:25:22;11.23;;;6.90;;
1360;SDS011;674;45.552;-122.600;2022-11-23T09:27:55;20.03;;;7.80;;
1360;SDS011;674;45.552;-122.600;2022-11-23T09:30:26;14.83;;;7.40;;
1360;SDS011;674;45.552;-122.600;2022-11-23T09:32:55;19.27;;;8.57;;
1360;SDS011;674;45.552;-122.600;2022-11-23T09:35:24;16.80;;;9.87;;
1360;SDS011;674;45.552;-122.600;2022-11-23T09:37:59;15.80;;;8.83;;
1360;SDS011;674;45.552;-122.600;2022-11-23T09:40:30;30.27;;;11.63;;
1360;SDS011;674;45.552;-122.600;2022-11-23T09:43:08;17.20;;;10.00;;
1360;SDS011;674;45.552;-122.600;2022-11-23T09:45:53;11.90;;;8.30;;
1360;SDS011;674;45.552;-122.600;2022-11-23T09:51:17;17.23;;;9.77;;
1360;SDS011;674;45.552;-122.600;2022-11-23T09:53:51;14.07;;;9.40;;
1360;SDS011;674;45.552;-122.600;2022-11-23T09:56:26;15.97;;;10.43;;
1360;SDS011;674;45.552;-122.600;2022-11-23T09:59:49;17.33;;;13.00;;
1360;SDS011;674;45.552;-122.600;2022-11-23T10:02:04;21.60;;;13.97;;
1360;SDS011;674;45.552;-122.600;2022-11-23T10:04:39;17.33;;;14.93;;
1360;SDS011;674;45.552;-122.600;2022-11-23T10:09:50;18.33;;;12.27;;
1360;SDS011;674;45.552;-122.600;2022-11-23T10:15:38;16.10;;;8.60;;
1360;SDS011;674;45.552;-122.600;2022-11-23T10:26:31;16.97;;;10.43;;
1360;SDS011;674;45.552;-122.600;2022-11-23T10:29:10;13.87;;;9.50;;
1360;SDS011;674;45.552;-122.600;2022-11-23T10:31:57;15.27;;;10.80;;
1360;SDS011;674;45.552;-122.600;2022-11-23T10:37:12;12.60;;;9.70;;
1360;SDS011;674;45.552;-122.600;2022-11-23T10:39:42;15.77;;;11.20;;
1360;SDS011;674;45.552;-122.600;2022-11-23T10:42:20;20.90;;;13.87;;
1360;SDS011;674;45.552;-122.600;2022-11-23T10:44:50;23.53;;;12.50;;
1360;SDS011;674;45.552;-122.600;2022-11-23T10:47:32;19.90;;;17.80;;
1360;SDS011;674;45.552;-122.600;2022-11-23T10:50:27;19.90;;;14.03;;
1360;SDS011;674;45.552;-122.600;2022-11-23T10:53:01;22.97;;;16.30;;
1360;SDS011;674;45.552;-122.600;2022-11-23T10:55:52;45.67;;;37.27;;
1360;SDS011;674;45.552;-122.600;2022-11-23T10:58:29;21.53;;;12.93;;
1360;SDS011;674;45.552;-122.600;2022-11-23T11:01:05;13.90;;;10.70;;
1360;SDS011;674;45.552;-122.600;2022-11-23T11:03:53;12.30;;;7.93;;
1360;SDS011;674;45.552;-122.600;2022-11-23T11:06:23;18.33;;;8.53;;
1360;SDS011;674;45.552;-122.600;2022-11-23T11:08:58;13.83;;;6.23;;
1360;SDS011;674;45.552;-122.600;2022-11-23T11:11:31;12.40;;;7.20;;
1360;SDS011;674;45.552;-122.600;2022-11-23T11:14:15;13.27;;;6.20;;
1360;SDS011;674;45.552;-122.600;2022-11-23T11:16:54;13.53;;;5.90;;
1360;SDS011;674;45.552;-122.600;2022-11-23T11:19:31;12.90;;;6.63;;
1360;SDS011;674;45.552;-122.600;2022-11-23T11:22:01;12.77;;;7.20;;
1360;SDS011;674;45.552;-122.600;2022-11-23T11:24:51;11.47;;;7.40;;
1360;SDS011;674;45.552;-122.600;2022-11-23T11:27:20;11.90;;;6.50;;
1360;SDS011;674;45.552;-122.600;2022-11-23T11:29:51;11.50;;;5.63;;
1360;SDS011;674;45.552;-122.600;2022-11-23T11:35:10;11.67;;;5.90;;
1360;SDS011;674;45.552;-122.600;2022-11-23T11:37:48;9.67;;;5.47;;
1360;SDS011;674;45.552;-122.600;2022-11-23T11:46:13;9.13;;;5.50;;
1360;SDS011;674;45.552;-122.600;2022-11-23T11:48:56;13.83;;;10.27;;
1360;SDS011;674;45.552;-122.600;2022-11-23T11:51:29;20.20;;;12.40;;
1360;SDS011;674;45.552;-122.600;2022-11-23T11:57:18;12.87;;;9.43;;
1360;SDS011;674;45.552;-122.600;2022-11-23T11:59:50;15.97;;;10.17;;
1360;SDS011;674;45.552;-122.600;2022-11-23T12:02:34;12.00;;;8.67;;
1360;SDS011;674;45.552;-122.600;2022-11-23T12:07:46;13.90;;;7.57;;
1360;SDS011;674;45.552;-122.600;2022-11-23T12:10:32;11.53;;;8.77;;
1360;SDS011;674;45.552;-122.600;2022-11-23T12:13:12;22.27;;;10.50;;
1360;SDS011;674;45.552;-122.600;2022-11-23T12:15:45;18.77;;;9.43;;
1360;SDS011;674;45.552;-122.600;2022-11-23T12:21:17;21.37;;;11.07;;
1360;SDS011;674;45.552;-122.600;2022-11-23T12:24:03;22.13;;;11.50;;
1360;SDS011;674;45.552;-122.600;2022-11-23T12:46:41;13.13;;;7.17;;
1360;SDS011;674;45.552;-122.600;2022-11-23T12:51:57;13.23;;;7.67;;
1360;SDS011;674;45.552;-122.600;2022-11-23T12:57:24;11.30;;;8.10;;
1360;SDS011;674;45.552;-122.600;2022-11-23T13:00:11;13.13;;;7.53;;
1360;SDS011;674;45.552;-122.600;2022-11-23T13:07:48;9.57;;;7.47;;
1360;SDS011;674;45.552;-122.600;2022-11-23T13:11:00;15.50;;;9.37;;
1360;SDS011;674;45.552;-122.600;2022-11-23T13:13:48;20.67;;;13.73;;
1360;SDS011;674;45.552;-122.600;2022-11-23T13:16:29;16.10;;;10.20;;
1360;SDS011;674;45.552;-122.600;2022-11-23T13:19:10;13.50;;;9.17;;
1360;SDS011;674;45.552;-122.600;2022-11-23T13:21:47;19.23;;;12.97;;
1360;SDS011;674;45.552;-122.600;2022-11-23T13:24:32;19.20;;;11.17;;
1360;SDS011;674;45.552;-122.600;2022-11-23T13:29:45;14.43;;;8.10;;
1360;SDS011;674;45.552;-122.600;2022-11-23T13:40:24;7.67;;;6.30;;
1360;SDS011;674;45.552;-122.600;2022-11-23T13:45:32;9.40;;;6.13;;
1360;SDS011;674;45.552;-122.600;2022-11-23T13:50:31;9.20;;;5.93;;
1360;SDS011;674;45.552;-122.600;2022-11-23T13:53:00;10.83;;;7.00;;
1360;SDS011;674;45.552;-122.600;2022-11-23T13:55:33;13.20;;;9.10;;
1360;SDS011;674;45.552;-122.600;2022-11-23T13:58:50;13.37;;;6.70;;
1360;SDS011;674;45.552;-122.600;2022-11-23T14:00:53;6.77;;;5.60;;
1360;SDS011;674;45.552;-122.600;2022-11-23T14:11:47;12.93;;;7.90;;
1360;SDS011;674;45.552;-122.600;2022-11-23T14:14:20;12.07;;;7.53;;
1360;SDS011;674;45.552;-122.600;2022-11-23T14:16:57;8.80;;;5.67;;
1360;SDS011;674;45.552;-122.600;2022-11-23T14:27:50;14.87;;;7.70;;
1360;SDS011;674;45.552;-122.600;2022-11-23T14:38:55;10.40;;;6.60;;
1360;SDS011;674;45.552;-122.600;2022-11-23T14:41:48;13.00;;;6.17;;
1360;SDS011;674;45.552;-122.600;2022-11-23T14:44:22;11.17;;;7.53;;
1360;SDS011;674;45.552;-122.600;2022-11-23T14:47:03;8.60;;;6.50;;
1360;SDS011;674;45.552;-122.600;2022-11-23T14:49:36;10.40;;;7.00;;
1360;SDS011;674;45.552;-122.600;2022-11-23T14:52:22;16.03;;;10.57;;
1360;SDS011;674;45.552;-122.600;2022-11-23T14:54:56;13.50;;;9.27;;
1360;SDS011;674;45.552;-122.600;2022-11-23T14:57:28;10.75;;;7.53;;
1360;SDS011;674;45.552;-122.600;2022-11-23T15:00:06;11.50;;;8.10;;
1360;SDS011;674;45.552;-122.600;2022-11-23T15:02:56;13.80;;;9.50;;
1360;SDS011;674;45.552;-122.600;2022-11-23T15:05:52;13.83;;;7.20;;
1360;SDS011;674;45.552;-122.600;2022-11-23T15:08:27;24.00;;;12.00;;
1360;SDS011;674;45.552;-122.600;2022-11-23T15:11:04;15.20;;;8.23;;
1360;SDS011;674;45.552;-122.600;2022-11-23T15:13:52;16.17;;;9.32;;
1360;SDS011;674;45.552;-122.600;2022-11-23T15:16:24;11.48;;;7.55;;
1360;SDS011;674;45.552;-122.600;2022-11-23T15:18:52;17.52;;;10.23;;
1360;SDS011;674;45.552;-122.600;2022-11-23T15:21:22;14.63;;;10.90;;
1360;SDS011;674;45.552;-122.600;2022-11-23T15:23:56;13.27;;;7.37;;
1360;SDS011;674;45.552;-122.600;2022-11-23T15:26:27;11.45;;;7.68;;
1360;SDS011;674;45.552;-122.600;2022-11-23T15:30:18;18.83;;;11.07;;
1360;SDS011;674;45.552;-122.600;2022-11-23T15:32:29;14.55;;;9.23;;
1360;SDS011;674;45.552;-122.600;2022-11-23T15:35:02;15.70;;;10.00;;
1360;SDS011;674;45.552;-122.600;2022-11-23T15:37:45;14.43;;;9.80;;
1360;SDS011;674;45.552;-122.600;2022-11-23T15:40:16;14.80;;;8.40;;
1360;SDS011;674;45.552;-122.600;2022-11-23T15:42:45;13.10;;;8.25;;
1360;SDS011;674;45.552;-122.600;2022-11-23T15:48:05;12.53;;;9.37;;
1360;SDS011;674;45.552;-122.600;2022-11-23T15:50:52;19.43;;;9.20;;
1360;SDS011;674;45.552;-122.600;2022-11-23T15:53:29;16.57;;;11.57;;
1360;SDS011;674;45.552;-122.600;2022-11-23T15:55:59;16.80;;;11.73;;
1360;SDS011;674;45.552;-122.600;2022-11-23T15:58:32;11.13;;;8.77;;
1360;SDS011;674;45.552;-122.600;2022-11-23T16:01:11;20.60;;;12.73;;
1360;SDS011;674;45.552;-122.600;2022-11-23T16:03:47;14.53;;;8.37;;
1360;SDS011;674;45.552;-122.600;2022-11-23T16:14:48;11.40;;;7.50;;
1360;SDS011;674;45.552;-122.600;2022-11-23T16:17:21;18.47;;;9.97;;
1360;SDS011;674;45.552;-122.600;2022-11-23T16:19:55;16.90;;;9.47;;
1360;SDS011;674;45.552;-122.600;2022-11-23T16:22:29;12.13;;;7.93;;
1360;SDS011;674;45.552;-122.600;2022-11-23T16:25:15;13.43;;;9.90;;
1360;SDS011;674;45.552;-122.600;2022-11-23T16:27:58;15.50;;;10.23;;
1360;SDS011;674;45.552;-122.600;2022-11-23T16:30:35;9.50;;;8.13;;
1360;SDS011;674;45.552;-122.600;2022-11-23T16:33:12;14.70;;;8.27;;
1360;SDS011;674;45.552;-122.600;2022-11-23T16:35:45;12.97;;;9.20;;
1360;SDS011;674;45.552;-122.600;2022-11-23T16:38:15;13.27;;;8.63;;
1360;SDS011;674;45.552;-122.600;2022-11-23T16:40:44;13.47;;;8.53;;
1360;SDS011;674;45.552;-122.600;2022-11-23T16:43:16;18.17;;;11.83;;
1360;SDS011;674;45.552;-122.600;2022-11-23T16:45:48;33.03;;;15.63;;
1360;SDS011;674;45.552;-122.600;2022-11-23T16:50:53;16.57;;;11.20;;
1360;SDS011;674;45.552;-122.600;2022-11-23T16:53:23;27.20;;;17.23;;
1360;SDS011;674;45.552;-122.600;2022-11-23T16:56:23;24.20;;;14.37;;
1360;SDS011;674;45.552;-122.600;2022-11-23T16:58:52;19.33;;;11.60;;
1360;SDS011;674;45.552;-122.600;2022-11-23T17:01:24;27.87;;;14.20;;
1360;SDS011;674;45.552;-122.600;2022-11-23T17:03:54;23.90;;;12.70;;
1360;SDS011;674;45.552;-122.600;2022-11-23T17:06:24;26.90;;;13.10;;
1360;SDS011;674;45.552;-122.600;2022-11-23T17:08:52;20.13;;;10.40;;